sensor_id;sensor_type;location;lat;lon;timestamp;P1;durP1;ratioP1;P2;durP2;ratioP2
5121;SDS011;2563;52.242;7.956;2023-06-14T00:00:09;12.03;;;3.00;;
5121;SDS011;2563;52.242;7.956;2023-06-14T00:02:37;5.37;;;2.70;;
5121;SDS011;2563;52.242;7.956;2023-06-14T00:05:04;6.00;;;2.73;;
5121;SDS011;2563;52.242;7.956;2023-06-14T00:07:37;7.90;;;3.07;;
5121;SDS011;2563;52.242;7.956;2023-06-14T00:10:07;6.60;;;3.03;;
5121;SDS011;2563;52.242;7.956;2023-06-14T00:12:33;7.10;;;2.60;;
5121;SDS011;2563;52.242;7.956;2023-06-14T00:14:59;6.00;;;2.80;;
5121;SDS011;2563;52.242;7.956;2023-06-14T00:17:26;6.70;;;3.00;;
5121;SDS011;2563;52.242;7.956;2023-06-14T00:19:55;7.47;;;3.20;;
5121;SDS011;2563;52.242;7.956;2023-06-14T00:22:21;6.93;;;3.00;;
5121;SDS011;2563;52.242;7.956;2023-06-14T00:24:49;4.73;;;2.70;;
5121;SDS011;2563;52.242;7.956;2023-06-14T00:27:15;4.60;;;2.60;;
5121;SDS011;2563;52.242;7.956;2023-06-14T00:29:40;6.50;;;2.67;;
5121;SDS011;2563;52.242;7.956;2023-06-14T00:32:06;6.57;;;2.83;;
5121;SDS011;2563;52.242;7.956;2023-06-14T00:34:32;5.07;;;2.90;;
5121;SDS011;2563;52.242;7.956;2023-06-14T00:36:57;7.93;;;3.10;;
5121;SDS011;2563;52.242;7.956;2023-06-14T00:39:23;5.40;;;3.03;;
5121;SDS011;2563;52.242;7.956;2023-06-14T00:41:48;5.93;;;2.77;;
5121;SDS011;2563;52.242;7.956;2023-06-14T00:44:13;5.40;;;3.37;;
5121;SDS011;2563;52.242;7.956;2023-06-14T00:46:41;4.13;;;2.70;;
5121;SDS011;2563;52.242;7.956;2023-06-14T00:49:07;16.33;;;3.20;;
5121;SDS011;2563;52.242;7.956;2023-06-14T00:51:33;7.40;;;2.73;;
5121;SDS011;2563;52.242;7.956;2023-06-14T00:53:59;8.13;;;2.83;;
5121;SDS011;2563;52.242;7.956;2023-06-14T00:56:25;3.33;;;2.57;;
5121;SDS011;2563;52.242;7.956;2023-06-14T00:58:52;4.80;;;2.70;;
5121;SDS011;2563;52.242;7.956;2023-06-14T01:01:18;6.57;;;3.23;;
5121;SDS011;2563;52.242;7.956;2023-06-14T01:03:43;4.57;;;2.97;;
5121;SDS011;2563;52.242;7.956;2023-06-14T01:08:49;5.63;;;3.00;;
5121;SDS011;2563;52.242;7.956;2023-06-14T01:11:21;4.30;;;2.90;;
5121;SDS011;2563;52.242;7.956;2023-06-14T01:13:52;6.10;;;3.20;;
5121;SDS011;2563;52.242;7.956;2023-06-14T01:16:19;6.80;;;3.00;;
5121;SDS011;2563;52.242;7.956;2023-06-14T01:18:45;8.97;;;3.13;;
5121;SDS011;2563;52.242;7.956;2023-06-14T01:21:22;7.57;;;3.27;;
5121;SDS011;2563;52.242;7.956;2023-06-14T01:23:50;10.10;;;4.63;;
5121;SDS011;2563;52.242;7.956;2023-06-14T01:26:23;7.07;;;3.43;;
5121;SDS011;2563;52.242;7.956;2023-06-14T01:28:49;10.77;;;3.30;;
5121;SDS011;2563;52.242;7.956;2023-06-14T01:31:18;6.63;;;3.07;;
5121;SDS011;2563;52.242;7.956;2023-06-14T01:33:46;5.23;;;3.30;;
5121;SDS011;2563;52.242;7.956;2023-06-14T01:36:13;5.17;;;2.87;;
5121;SDS011;2563;52.242;7.956;2023-06-14T01:38:40;5.83;;;3.03;;
5121;SDS011;2563;52.242;7.956;2023-06-14T01:41:07;7.50;;;3.70;;
5121;SDS011;2563;52.242;7.956;2023-06-14T01:43:32;5.40;;;2.80;;
5121;SDS011;2563;52.242;7.956;2023-06-14T01:45:59;5.73;;;3.50;;
5121;SDS011;2563;52.242;7.956;2023-06-14T01:48:25;12.60;;;4.60;;
5121;SDS011;2563;52.242;7.956;2023-06-14T01:50:51;6.00;;;2.80;;
5121;SDS011;2563;52.242;7.956;2023-06-14T01:53:17;3.40;;;2.53;;
5121;SDS011;2563;52.242;7.956;2023-06-14T01:55:42;3.37;;;2.63;;
5121;SDS011;2563;52.242;7.956;2023-06-14T01:58:09;4.77;;;2.57;;
5121;SDS011;2563;52.242;7.956;2023-06-14T02:00:35;4.90;;;2.90;;
5121;SDS011;2563;52.242;7.956;2023-06-14T02:03:01;7.10;;;3.80;;
5121;SDS011;2563;52.242;7.956;2023-06-14T02:05:29;8.67;;;4.20;;
5121;SDS011;2563;52.242;7.956;2023-06-14T02:07:55;8.00;;;3.90;;
5121;SDS011;2563;52.242;7.956;2023-06-14T02:10:20;11.77;;;3.80;;
5121;SDS011;2563;52.242;7.956;2023-06-14T02:12:46;12.40;;;3.70;;
5121;SDS011;2563;52.242;7.956;2023-06-14T02:15:11;5.30;;;3.13;;
5121;SDS011;2563;52.242;7.956;2023-06-14T02:17:44;6.43;;;3.43;;
5121;SDS011;2563;52.242;7.956;2023-06-14T02:20:10;6.30;;;2.77;;
5121;SDS011;2563;52.242;7.956;2023-06-14T02:22:36;5.43;;;3.10;;
5121;SDS011;2563;52.242;7.956;2023-06-14T02:25:01;10.37;;;3.20;;
5121;SDS011;2563;52.242;7.956;2023-06-14T02:27:27;7.50;;;3.10;;
5121;SDS011;2563;52.242;7.956;2023-06-14T02:29:53;15.27;;;3.23;;
5121;SDS011;2563;52.242;7.956;2023-06-14T02:32:18;13.17;;;2.97;;
5121;SDS011;2563;52.242;7.956;2023-06-14T02:34:44;6.70;;;2.90;;
5121;SDS011;2563;52.242;7.956;2023-06-14T02:37:09;6.20;;;3.60;;
5121;SDS011;2563;52.242;7.956;2023-06-14T02:39:36;5.73;;;2.93;;
5121;SDS011;2563;52.242;7.956;2023-06-14T02:42:01;6.83;;;3.30;;
5121;SDS011;2563;52.242;7.956;2023-06-14T02:44:27;11.33;;;3.30;;
5121;SDS011;2563;52.242;7.956;2023-06-14T02:46:53;4.00;;;2.60;;
5121;SDS011;2563;52.242;7.956;2023-06-14T02:49:19;7.53;;;3.17;;
5121;SDS011;2563;52.242;7.956;2023-06-14T02:51:44;5.40;;;3.17;;
5121;SDS011;2563;52.242;7.956;2023-06-14T02:54:10;7.03;;;3.10;;
5121;SDS011;2563;52.242;7.956;2023-06-14T02:56:35;6.00;;;3.37;;
5121;SDS011;2563;52.242;7.956;2023-06-14T02:59:01;8.67;;;3.57;;
5121;SDS011;2563;52.242;7.956;2023-06-14T03:01:27;12.20;;;3.20;;
5121;SDS011;2563;52.242;7.956;2023-06-14T03:03:58;4.47;;;3.03;;
5121;SDS011;2563;52.242;7.956;2023-06-14T03:06:24;12.10;;;3.27;;
5121;SDS011;2563;52.242;7.956;2023-06-14T03:08:49;6.10;;;2.80;;
5121;SDS011;2563;52.242;7.956;2023-06-14T03:11:15;5.97;;;2.70;;
5121;SDS011;2563;52.242;7.956;2023-06-14T03:13:42;6.77;;;2.73;;
5121;SDS011;2563;52.242;7.956;2023-06-14T03:16:08;7.50;;;3.63;;
5121;SDS011;2563;52.242;7.956;2023-06-14T03:18:34;7.00;;;3.33;;
5121;SDS011;2563;52.242;7.956;2023-06-14T03:21:01;9.50;;;3.60;;
5121;SDS011;2563;52.242;7.956;2023-06-14T03:23:27;7.37;;;3.07;;
5121;SDS011;2563;52.242;7.956;2023-06-14T03:25:53;9.30;;;3.43;;
5121;SDS011;2563;52.242;7.956;2023-06-14T03:28:18;5.70;;;3.50;;
5121;SDS011;2563;52.242;7.956;2023-06-14T03:30:43;4.07;;;3.10;;
5121;SDS011;2563;52.242;7.956;2023-06-14T03:33:09;6.07;;;3.00;;
5121;SDS011;2563;52.242;7.956;2023-06-14T03:35:34;6.00;;;3.33;;
5121;SDS011;2563;52.242;7.956;2023-06-14T03:38:00;12.37;;;3.80;;
5121;SDS011;2563;52.242;7.956;2023-06-14T03:40:25;11.07;;;4.50;;
5121;SDS011;2563;52.242;7.956;2023-06-14T03:42:53;5.77;;;3.63;;
5121;SDS011;2563;52.242;7.956;2023-06-14T03:45:18;4.80;;;2.90;;
5121;SDS011;2563;52.242;7.956;2023-06-14T03:47:44;6.67;;;3.20;;
5121;SDS011;2563;52.242;7.956;2023-06-14T03:50:09;6.87;;;3.30;;
5121;SDS011;2563;52.242;7.956;2023-06-14T03:52:35;6.07;;;3.37;;
5121;SDS011;2563;52.242;7.956;2023-06-14T03:55:01;9.73;;;3.93;;
5121;SDS011;2563;52.242;7.956;2023-06-14T03:57:27;4.00;;;2.80;;
5121;SDS011;2563;52.242;7.956;2023-06-14T03:59:54;4.87;;;2.70;;
5121;SDS011;2563;52.242;7.956;2023-06-14T04:02:20;5.53;;;2.97;;
5121;SDS011;2563;52.242;7.956;2023-06-14T04:04:45;4.60;;;3.03;;
5121;SDS011;2563;52.242;7.956;2023-06-14T04:07:11;6.70;;;3.30;;
5121;SDS011;2563;52.242;7.956;2023-06-14T04:09:37;6.57;;;3.20;;
5121;SDS011;2563;52.242;7.956;2023-06-14T04:12:04;7.13;;;2.67;;
5121;SDS011;2563;52.242;7.956;2023-06-14T04:14:30;7.47;;;3.20;;
5121;SDS011;2563;52.242;7.956;2023-06-14T04:16:58;6.57;;;3.00;;
5121;SDS011;2563;52.242;7.956;2023-06-14T04:19:23;6.20;;;3.30;;
5121;SDS011;2563;52.242;7.956;2023-06-14T04:21:49;6.67;;;3.10;;
5121;SDS011;2563;52.242;7.956;2023-06-14T04:24:15;4.20;;;2.40;;
5121;SDS011;2563;52.242;7.956;2023-06-14T04:26:41;4.70;;;3.30;;
5121;SDS011;2563;52.242;7.956;2023-06-14T04:29:10;9.10;;;3.60;;
5121;SDS011;2563;52.242;7.956;2023-06-14T04:31:39;10.60;;;3.30;;
5121;SDS011;2563;52.242;7.956;2023-06-14T04:34:05;8.10;;;3.90;;
5121;SDS011;2563;52.242;7.956;2023-06-14T04:36:33;17.93;;;4.30;;
5121;SDS011;2563;52.242;7.956;2023-06-14T04:39:02;7.37;;;4.20;;
5121;SDS011;2563;52.242;7.956;2023-06-14T04:41:32;12.30;;;4.37;;
5121;SDS011;2563;52.242;7.956;2023-06-14T04:43:57;12.47;;;3.90;;
5121;SDS011;2563;52.242;7.956;2023-06-14T04:46:26;6.40;;;2.90;;
5121;SDS011;2563;52.242;7.956;2023-06-14T04:48:53;7.63;;;3.50;;
5121;SDS011;2563;52.242;7.956;2023-06-14T04:51:19;5.63;;;3.40;;
5121;SDS011;2563;52.242;7.956;2023-06-14T04:53:46;6.47;;;3.67;;
5121;SDS011;2563;52.242;7.956;2023-06-14T04:56:11;5.67;;;3.07;;
5121;SDS011;2563;52.242;7.956;2023-06-14T04:58:37;7.17;;;3.97;;
5121;SDS011;2563;52.242;7.956;2023-06-14T05:01:03;4.33;;;2.77;;
5121;SDS011;2563;52.242;7.956;2023-06-14T05:03:29;12.07;;;3.40;;
5121;SDS011;2563;52.242;7.956;2023-06-14T05:05:55;6.13;;;3.47;;
5121;SDS011;2563;52.242;7.956;2023-06-14T05:08:21;6.63;;;3.47;;
5121;SDS011;2563;52.242;7.956;2023-06-14T05:10:49;6.33;;;3.97;;
5121;SDS011;2563;52.242;7.956;2023-06-14T05:13:15;6.30;;;3.50;;
5121;SDS011;2563;52.242;7.956;2023-06-14T05:15:41;6.47;;;3.30;;
5121;SDS011;2563;52.242;7.956;2023-06-14T05:18:06;5.80;;;3.53;;
5121;SDS011;2563;52.242;7.956;2023-06-14T05:20:34;5.87;;;3.43;;
5121;SDS011;2563;52.242;7.956;2023-06-14T05:23:02;8.67;;;3.70;;
5121;SDS011;2563;52.242;7.956;2023-06-14T05:25:27;16.63;;;3.77;;
5121;SDS011;2563;52.242;7.956;2023-06-14T05:27:53;4.70;;;3.30;;
5121;SDS011;2563;52.242;7.956;2023-06-14T05:30:18;5.70;;;3.10;;
5121;SDS011;2563;52.242;7.956;2023-06-14T05:32:44;4.57;;;3.27;;
5121;SDS011;2563;52.242;7.956;2023-06-14T05:35:09;7.83;;;3.47;;
5121;SDS011;2563;52.242;7.956;2023-06-14T05:37:35;9.10;;;3.70;;
5121;SDS011;2563;52.242;7.956;2023-06-14T05:40:01;5.37;;;3.63;;
5121;SDS011;2563;52.242;7.956;2023-06-14T05:42:29;9.80;;;3.97;;
5121;SDS011;2563;52.242;7.956;2023-06-14T05:44:55;5.50;;;3.30;;
5121;SDS011;2563;52.242;7.956;2023-06-14T05:47:20;6.47;;;3.60;;
5121;SDS011;2563;52.242;7.956;2023-06-14T05:49:46;7.00;;;3.43;;
5121;SDS011;2563;52.242;7.956;2023-06-14T05:52:11;7.03;;;3.50;;
5121;SDS011;2563;52.242;7.956;2023-06-14T05:54:38;9.43;;;3.53;;
5121;SDS011;2563;52.242;7.956;2023-06-14T05:57:03;6.47;;;3.77;;
5121;SDS011;2563;52.242;7.956;2023-06-14T05:59:31;7.20;;;3.73;;
5121;SDS011;2563;52.242;7.956;2023-06-14T06:01:56;7.60;;;3.10;;
5121;SDS011;2563;52.242;7.956;2023-06-14T06:04:22;5.57;;;3.03;;
5121;SDS011;2563;52.242;7.956;2023-06-14T06:06:48;4.07;;;2.93;;
5121;SDS011;2563;52.242;7.956;2023-06-14T06:09:14;8.40;;;3.20;;
5121;SDS011;2563;52.242;7.956;2023-06-14T06:11:40;6.50;;;3.47;;
5121;SDS011;2563;52.242;7.956;2023-06-14T06:14:05;12.90;;;4.00;;
5121;SDS011;2563;52.242;7.956;2023-06-14T06:16:31;6.60;;;2.80;;
5121;SDS011;2563;52.242;7.956;2023-06-14T06:18:56;6.03;;;3.23;;
5121;SDS011;2563;52.242;7.956;2023-06-14T06:21:22;6.93;;;3.50;;
5121;SDS011;2563;52.242;7.956;2023-06-14T06:23:47;8.63;;;3.50;;
5121;SDS011;2563;52.242;7.956;2023-06-14T06:26:12;4.50;;;3.23;;
5121;SDS011;2563;52.242;7.956;2023-06-14T06:28:38;9.03;;;3.60;;
5121;SDS011;2563;52.242;7.956;2023-06-14T06:31:03;6.93;;;3.47;;
5121;SDS011;2563;52.242;7.956;2023-06-14T06:33:28;7.97;;;2.93;;
5121;SDS011;2563;52.242;7.956;2023-06-14T06:35:54;5.80;;;2.90;;
5121;SDS011;2563;52.242;7.956;2023-06-14T06:38:20;7.00;;;3.30;;
5121;SDS011;2563;52.242;7.956;2023-06-14T06:40:45;5.93;;;3.43;;
5121;SDS011;2563;52.242;7.956;2023-06-14T06:43:11;6.83;;;3.10;;
5121;SDS011;2563;52.242;7.956;2023-06-14T06:45:39;4.60;;;2.63;;
5121;SDS011;2563;52.242;7.956;2023-06-14T06:48:07;6.80;;;3.43;;
5121;SDS011;2563;52.242;7.956;2023-06-14T06:50:32;13.90;;;4.03;;
5121;SDS011;2563;52.242;7.956;2023-06-14T06:52:58;4.50;;;2.30;;
5121;SDS011;2563;52.242;7.956;2023-06-14T06:55:23;5.27;;;2.40;;
5121;SDS011;2563;52.242;7.956;2023-06-14T06:57:48;6.40;;;2.20;;
5121;SDS011;2563;52.242;7.956;2023-06-14T07:00:15;9.53;;;2.97;;
5121;SDS011;2563;52.242;7.956;2023-06-14T07:02:41;3.60;;;2.43;;
5121;SDS011;2563;52.242;7.956;2023-06-14T07:05:06;4.00;;;2.50;;
5121;SDS011;2563;52.242;7.956;2023-06-14T07:07:32;3.73;;;2.50;;
5121;SDS011;2563;52.242;7.956;2023-06-14T07:09:57;4.23;;;2.50;;
5121;SDS011;2563;52.242;7.956;2023-06-14T07:12:23;3.90;;;2.30;;
5121;SDS011;2563;52.242;7.956;2023-06-14T07:14:49;3.60;;;2.33;;
5121;SDS011;2563;52.242;7.956;2023-06-14T07:17:14;4.43;;;2.73;;
5121;SDS011;2563;52.242;7.956;2023-06-14T07:19:39;4.07;;;2.33;;
5121;SDS011;2563;52.242;7.956;2023-06-14T07:22:05;3.97;;;2.37;;
5121;SDS011;2563;52.242;7.956;2023-06-14T07:24:30;3.10;;;2.10;;
5121;SDS011;2563;52.242;7.956;2023-06-14T07:26:56;3.50;;;2.13;;
5121;SDS011;2563;52.242;7.956;2023-06-14T07:29:21;3.77;;;2.40;;
5121;SDS011;2563;52.242;7.956;2023-06-14T07:31:47;4.83;;;2.40;;
5121;SDS011;2563;52.242;7.956;2023-06-14T07:34:12;4.10;;;2.40;;
5121;SDS011;2563;52.242;7.956;2023-06-14T07:36:38;3.30;;;2.13;;
5121;SDS011;2563;52.242;7.956;2023-06-14T07:39:04;3.07;;;2.20;;
5121;SDS011;2563;52.242;7.956;2023-06-14T07:41:30;3.60;;;2.50;;
5121;SDS011;2563;52.242;7.956;2023-06-14T07:43:56;3.77;;;2.10;;
5121;SDS011;2563;52.242;7.956;2023-06-14T07:46:21;15.13;;;2.40;;
5121;SDS011;2563;52.242;7.956;2023-06-14T07:48:47;4.33;;;2.67;;
5121;SDS011;2563;52.242;7.956;2023-06-14T07:51:13;8.13;;;2.40;;
5121;SDS011;2563;52.242;7.956;2023-06-14T07:53:38;4.10;;;2.07;;
5121;SDS011;2563;52.242;7.956;2023-06-14T07:56:04;5.80;;;2.10;;
5121;SDS011;2563;52.242;7.956;2023-06-14T07:58:29;3.43;;;2.50;;
5121;SDS011;2563;52.242;7.956;2023-06-14T08:00:54;4.00;;;2.10;;
5121;SDS011;2563;52.242;7.956;2023-06-14T08:03:20;6.73;;;2.13;;
5121;SDS011;2563;52.242;7.956;2023-06-14T08:05:47;4.33;;;2.20;;
5121;SDS011;2563;52.242;7.956;2023-06-14T08:08:13;2.97;;;2.10;;
5121;SDS011;2563;52.242;7.956;2023-06-14T08:10:38;2.73;;;2.07;;
5121;SDS011;2563;52.242;7.956;2023-06-14T08:13:03;3.30;;;2.30;;
5121;SDS011;2563;52.242;7.956;2023-06-14T08:15:29;3.33;;;2.00;;
5121;SDS011;2563;52.242;7.956;2023-06-14T08:17:54;5.00;;;2.67;;
5121;SDS011;2563;52.242;7.956;2023-06-14T08:20:19;5.83;;;1.90;;
5121;SDS011;2563;52.242;7.956;2023-06-14T08:22:45;4.60;;;2.20;;
5121;SDS011;2563;52.242;7.956;2023-06-14T08:25:12;4.20;;;2.20;;
5121;SDS011;2563;52.242;7.956;2023-06-14T08:27:37;6.43;;;1.90;;
5121;SDS011;2563;52.242;7.956;2023-06-14T08:30:03;3.60;;;2.10;;
5121;SDS011;2563;52.242;7.956;2023-06-14T08:32:29;5.07;;;2.13;;
5121;SDS011;2563;52.242;7.956;2023-06-14T08:34:54;5.27;;;2.10;;
5121;SDS011;2563;52.242;7.956;2023-06-14T08:37:20;11.10;;;2.67;;
5121;SDS011;2563;52.242;7.956;2023-06-14T08:39:46;6.40;;;2.40;;
5121;SDS011;2563;52.242;7.956;2023-06-14T08:42:11;7.10;;;2.20;;
5121;SDS011;2563;52.242;7.956;2023-06-14T08:44:39;4.53;;;2.13;;
5121;SDS011;2563;52.242;7.956;2023-06-14T08:47:04;25.20;;;3.23;;
5121;SDS011;2563;52.242;7.956;2023-06-14T08:49:32;13.77;;;3.37;;
5121;SDS011;2563;52.242;7.956;2023-06-14T08:51:59;4.43;;;2.23;;
5121;SDS011;2563;52.242;7.956;2023-06-14T08:54:26;5.53;;;2.30;;
5121;SDS011;2563;52.242;7.956;2023-06-14T08:56:54;2.67;;;1.90;;
5121;SDS011;2563;52.242;7.956;2023-06-14T08:59:31;3.57;;;2.30;;
5121;SDS011;2563;52.242;7.956;2023-06-14T09:02:03;4.27;;;2.30;;
5121;SDS011;2563;52.242;7.956;2023-06-14T09:04:30;2.83;;;2.20;;
5121;SDS011;2563;52.242;7.956;2023-06-14T09:06:57;3.10;;;1.93;;
5121;SDS011;2563;52.242;7.956;2023-06-14T09:09:23;2.23;;;1.77;;
5121;SDS011;2563;52.242;7.956;2023-06-14T09:11:50;3.73;;;2.23;;
5121;SDS011;2563;52.242;7.956;2023-06-14T09:14:17;3.43;;;2.00;;
5121;SDS011;2563;52.242;7.956;2023-06-14T09:16:43;9.20;;;2.50;;
5121;SDS011;2563;52.242;7.956;2023-06-14T09:19:11;3.43;;;2.00;;
5121;SDS011;2563;52.242;7.956;2023-06-14T09:21:47;6.27;;;2.37;;
5121;SDS011;2563;52.242;7.956;2023-06-14T09:24:13;4.60;;;2.20;;
5121;SDS011;2563;52.242;7.956;2023-06-14T09:26:39;3.63;;;2.27;;
5121;SDS011;2563;52.242;7.956;2023-06-14T09:29:05;2.93;;;2.13;;
5121;SDS011;2563;52.242;7.956;2023-06-14T09:31:31;21.03;;;3.90;;
5121;SDS011;2563;52.242;7.956;2023-06-14T09:33:57;3.10;;;2.20;;
5121;SDS011;2563;52.242;7.956;2023-06-14T09:36:24;4.40;;;1.70;;
5121;SDS011;2563;52.242;7.956;2023-06-14T09:41:42;10.50;;;1.70;;
5121;SDS011;2563;52.242;7.956;2023-06-14T09:44:08;14.57;;;2.60;;
5121;SDS011;2563;52.242;7.956;2023-06-14T09:46:35;6.63;;;2.20;;
5121;SDS011;2563;52.242;7.956;2023-06-14T09:49:02;6.80;;;2.00;;
5121;SDS011;2563;52.242;7.956;2023-06-14T09:51:29;2.90;;;1.97;;
5121;SDS011;2563;52.242;7.956;2023-06-14T09:54:01;3.90;;;2.10;;
5121;SDS011;2563;52.242;7.956;2023-06-14T09:56:32;2.83;;;2.13;;
5121;SDS011;2563;52.242;7.956;2023-06-14T09:59:02;2.00;;;1.60;;
5121;SDS011;2563;52.242;7.956;2023-06-14T10:01:30;3.57;;;1.80;;
5121;SDS011;2563;52.242;7.956;2023-06-14T10:04:03;2.60;;;1.90;;
5121;SDS011;2563;52.242;7.956;2023-06-14T10:06:30;5.93;;;2.10;;
5121;SDS011;2563;52.242;7.956;2023-06-14T10:08:58;3.30;;;2.20;;
5121;SDS011;2563;52.242;7.956;2023-06-14T10:11:28;3.47;;;2.00;;
5121;SDS011;2563;52.242;7.956;2023-06-14T10:13:57;5.23;;;2.47;;
5121;SDS011;2563;52.242;7.956;2023-06-14T10:21:54;2.23;;;1.90;;
5121;SDS011;2563;52.242;7.956;2023-06-14T10:24:38;6.00;;;2.30;;
5121;SDS011;2563;52.242;7.956;2023-06-14T10:27:08;3.83;;;2.10;;
5121;SDS011;2563;52.242;7.956;2023-06-14T10:32:18;3.13;;;2.10;;
5121;SDS011;2563;52.242;7.956;2023-06-14T10:34:44;3.17;;;2.20;;
5121;SDS011;2563;52.242;7.956;2023-06-14T10:37:13;4.03;;;1.80;;
5121;SDS011;2563;52.242;7.956;2023-06-14T10:39:42;3.63;;;2.03;;
5121;SDS011;2563;52.242;7.956;2023-06-14T10:42:10;3.57;;;2.10;;
5121;SDS011;2563;52.242;7.956;2023-06-14T10:44:49;2.43;;;1.83;;
5121;SDS011;2563;52.242;7.956;2023-06-14T10:49:58;10.80;;;3.30;;
5121;SDS011;2563;52.242;7.956;2023-06-14T10:52:32;2.60;;;2.33;;
5121;SDS011;2563;52.242;7.956;2023-06-14T10:57:35;3.27;;;2.10;;
5121;SDS011;2563;52.242;7.956;2023-06-14T11:00:01;4.10;;;2.20;;
5121;SDS011;2563;52.242;7.956;2023-06-14T11:05:25;2.63;;;1.97;;
5121;SDS011;2563;52.242;7.956;2023-06-14T11:10:42;20.23;;;2.27;;
5121;SDS011;2563;52.242;7.956;2023-06-14T11:13:08;2.87;;;1.97;;
5121;SDS011;2563;52.242;7.956;2023-06-14T11:15:35;6.33;;;2.10;;
5121;SDS011;2563;52.242;7.956;2023-06-14T11:18:02;2.90;;;2.07;;
5121;SDS011;2563;52.242;7.956;2023-06-14T11:20:30;3.30;;;2.13;;
5121;SDS011;2563;52.242;7.956;2023-06-14T11:22:57;3.10;;;1.80;;
5121;SDS011;2563;52.242;7.956;2023-06-14T11:25:23;6.50;;;2.43;;
5121;SDS011;2563;52.242;7.956;2023-06-14T11:27:49;2.67;;;1.90;;
5121;SDS011;2563;52.242;7.956;2023-06-14T11:30:15;5.97;;;2.03;;
5121;SDS011;2563;52.242;7.956;2023-06-14T11:32:41;5.60;;;1.53;;
5121;SDS011;2563;52.242;7.956;2023-06-14T11:35:07;5.27;;;2.13;;
5121;SDS011;2563;52.242;7.956;2023-06-14T11:37:34;3.30;;;2.17;;
5121;SDS011;2563;52.242;7.956;2023-06-14T11:40:02;6.47;;;1.70;;
5121;SDS011;2563;52.242;7.956;2023-06-14T11:42:31;3.40;;;2.00;;
5121;SDS011;2563;52.242;7.956;2023-06-14T11:44:56;2.93;;;2.17;;
5121;SDS011;2563;52.242;7.956;2023-06-14T11:47:22;4.10;;;2.30;;
5121;SDS011;2563;52.242;7.956;2023-06-14T11:49:48;4.53;;;2.23;;
5121;SDS011;2563;52.242;7.956;2023-06-14T11:52:13;3.47;;;1.70;;
5121;SDS011;2563;52.242;7.956;2023-06-14T11:54:40;2.90;;;1.97;;
5121;SDS011;2563;52.242;7.956;2023-06-14T11:57:09;6.70;;;2.70;;
5121;SDS011;2563;52.242;7.956;2023-06-14T11:59:38;4.03;;;2.00;;
5121;SDS011;2563;52.242;7.956;2023-06-14T12:02:05;4.90;;;1.90;;
5121;SDS011;2563;52.242;7.956;2023-06-14T12:04:31;3.97;;;2.27;;
5121;SDS011;2563;52.242;7.956;2023-06-14T12:06:57;2.53;;;1.80;;
5121;SDS011;2563;52.242;7.956;2023-06-14T12:09:23;2.17;;;1.70;;
5121;SDS011;2563;52.242;7.956;2023-06-14T12:11:50;3.43;;;2.43;;
5121;SDS011;2563;52.242;7.956;2023-06-14T12:14:16;8.40;;;2.47;;
5121;SDS011;2563;52.242;7.956;2023-06-14T12:16:41;3.93;;;1.63;;
5121;SDS011;2563;52.242;7.956;2023-06-14T12:19:08;4.30;;;2.30;;
5121;SDS011;2563;52.242;7.956;2023-06-14T12:21:36;6.50;;;2.07;;
5121;SDS011;2563;52.242;7.956;2023-06-14T12:24:03;2.50;;;1.90;;
5121;SDS011;2563;52.242;7.956;2023-06-14T12:26:31;2.47;;;1.83;;
5121;SDS011;2563;52.242;7.956;2023-06-14T12:28:57;2.77;;;2.03;;
5121;SDS011;2563;52.242;7.956;2023-06-14T12:31:23;2.93;;;1.60;;
5121;SDS011;2563;52.242;7.956;2023-06-14T12:33:49;5.10;;;2.00;;
5121;SDS011;2563;52.242;7.956;2023-06-14T12:36:14;4.90;;;1.80;;
5121;SDS011;2563;52.242;7.956;2023-06-14T12:38:40;3.70;;;1.90;;
5121;SDS011;2563;52.242;7.956;2023-06-14T12:41:06;2.10;;;1.70;;
5121;SDS011;2563;52.242;7.956;2023-06-14T12:43:32;10.73;;;2.00;;
5121;SDS011;2563;52.242;7.956;2023-06-14T12:45:58;2.77;;;1.80;;
5121;SDS011;2563;52.242;7.956;2023-06-14T12:48:23;9.27;;;2.43;;
5121;SDS011;2563;52.242;7.956;2023-06-14T12:50:48;4.70;;;2.03;;
5121;SDS011;2563;52.242;7.956;2023-06-14T12:53:14;4.20;;;2.10;;
5121;SDS011;2563;52.242;7.956;2023-06-14T12:55:39;4.50;;;2.50;;
5121;SDS011;2563;52.242;7.956;2023-06-14T12:58:05;6.80;;;2.13;;
5121;SDS011;2563;52.242;7.956;2023-06-14T13:00:30;5.10;;;1.60;;
5121;SDS011;2563;52.242;7.956;2023-06-14T13:02:56;17.63;;;4.23;;
5121;SDS011;2563;52.242;7.956;2023-06-14T13:05:22;2.63;;;2.00;;
5121;SDS011;2563;52.242;7.956;2023-06-14T13:07:47;3.93;;;2.27;;
5121;SDS011;2563;52.242;7.956;2023-06-14T13:10:13;4.50;;;1.90;;
5121;SDS011;2563;52.242;7.956;2023-06-14T13:12:38;7.40;;;2.20;;
5121;SDS011;2563;52.242;7.956;2023-06-14T13:15:05;3.60;;;2.10;;
5121;SDS011;2563;52.242;7.956;2023-06-14T13:17:31;6.80;;;2.47;;
5121;SDS011;2563;52.242;7.956;2023-06-14T13:19:58;3.47;;;1.97;;
5121;SDS011;2563;52.242;7.956;2023-06-14T13:22:23;3.90;;;1.93;;
5121;SDS011;2563;52.242;7.956;2023-06-14T13:24:48;5.33;;;2.10;;
5121;SDS011;2563;52.242;7.956;2023-06-14T13:27:14;2.70;;;1.80;;
5121;SDS011;2563;52.242;7.956;2023-06-14T13:29:40;2.93;;;2.20;;
5121;SDS011;2563;52.242;7.956;2023-06-14T13:32:05;6.43;;;3.00;;
5121;SDS011;2563;52.242;7.956;2023-06-14T13:34:31;4.40;;;2.13;;
5121;SDS011;2563;52.242;7.956;2023-06-14T13:36:57;8.63;;;2.10;;
5121;SDS011;2563;52.242;7.956;2023-06-14T13:39:24;5.00;;;2.30;;
5121;SDS011;2563;52.242;7.956;2023-06-14T13:41:50;2.30;;;1.83;;
5121;SDS011;2563;52.242;7.956;2023-06-14T13:44:15;4.70;;;1.80;;
5121;SDS011;2563;52.242;7.956;2023-06-14T13:46:43;3.03;;;2.20;;
5121;SDS011;2563;52.242;7.956;2023-06-14T13:49:09;2.40;;;1.90;;
5121;SDS011;2563;52.242;7.956;2023-06-14T13:51:35;2.83;;;2.20;;
5121;SDS011;2563;52.242;7.956;2023-06-14T13:54:00;4.90;;;2.10;;
5121;SDS011;2563;52.242;7.956;2023-06-14T13:56:26;3.37;;;2.23;;
5121;SDS011;2563;52.242;7.956;2023-06-14T13:58:51;3.90;;;2.27;;
5121;SDS011;2563;52.242;7.956;2023-06-14T14:01:17;2.83;;;2.27;;
5121;SDS011;2563;52.242;7.956;2023-06-14T14:03:44;3.10;;;2.30;;
5121;SDS011;2563;52.242;7.956;2023-06-14T14:06:11;3.77;;;2.20;;
5121;SDS011;2563;52.242;7.956;2023-06-14T14:08:36;2.63;;;2.17;;
5121;SDS011;2563;52.242;7.956;2023-06-14T14:11:02;4.90;;;2.40;;
5121;SDS011;2563;52.242;7.956;2023-06-14T14:13:27;21.47;;;3.17;;
5121;SDS011;2563;52.242;7.956;2023-06-14T14:15:52;3.20;;;2.17;;
5121;SDS011;2563;52.242;7.956;2023-06-14T14:18:18;3.90;;;2.47;;
5121;SDS011;2563;52.242;7.956;2023-06-14T14:20:46;4.20;;;2.37;;
5121;SDS011;2563;52.242;7.956;2023-06-14T14:23:11;3.13;;;2.40;;
5121;SDS011;2563;52.242;7.956;2023-06-14T14:25:37;3.23;;;2.47;;
5121;SDS011;2563;52.242;7.956;2023-06-14T14:28:02;4.83;;;2.57;;
5121;SDS011;2563;52.242;7.956;2023-06-14T14:30:27;5.87;;;2.80;;
5121;SDS011;2563;52.242;7.956;2023-06-14T14:32:53;3.57;;;2.33;;
5121;SDS011;2563;52.242;7.956;2023-06-14T14:35:18;3.53;;;2.60;;
5121;SDS011;2563;52.242;7.956;2023-06-14T14:37:44;6.17;;;2.50;;
5121;SDS011;2563;52.242;7.956;2023-06-14T14:40:09;5.20;;;2.40;;
5121;SDS011;2563;52.242;7.956;2023-06-14T14:42:36;6.70;;;2.50;;
5121;SDS011;2563;52.242;7.956;2023-06-14T14:45:02;4.00;;;2.60;;
5121;SDS011;2563;52.242;7.956;2023-06-14T14:47:28;5.10;;;2.53;;
5121;SDS011;2563;52.242;7.956;2023-06-14T14:49:53;4.57;;;2.80;;
5121;SDS011;2563;52.242;7.956;2023-06-14T14:52:18;5.27;;;2.87;;
5121;SDS011;2563;52.242;7.956;2023-06-14T14:54:44;2.90;;;2.47;;
5121;SDS011;2563;52.242;7.956;2023-06-14T14:57:09;4.30;;;2.70;;
5121;SDS011;2563;52.242;7.956;2023-06-14T14:59:35;4.40;;;2.53;;
5121;SDS011;2563;52.242;7.956;2023-06-14T15:02:01;3.90;;;2.60;;
5121;SDS011;2563;52.242;7.956;2023-06-14T15:04:26;3.47;;;2.80;;
5121;SDS011;2563;52.242;7.956;2023-06-14T15:06:52;4.80;;;3.07;;
5121;SDS011;2563;52.242;7.956;2023-06-14T15:09:17;4.17;;;2.57;;
5121;SDS011;2563;52.242;7.956;2023-06-14T15:11:42;4.13;;;2.97;;
5121;SDS011;2563;52.242;7.956;2023-06-14T15:14:09;6.33;;;2.90;;
5121;SDS011;2563;52.242;7.956;2023-06-14T15:16:35;3.63;;;2.60;;
5121;SDS011;2563;52.242;7.956;2023-06-14T15:19:01;4.00;;;2.97;;
5121;SDS011;2563;52.242;7.956;2023-06-14T15:21:26;7.23;;;3.57;;
5121;SDS011;2563;52.242;7.956;2023-06-14T15:23:51;9.70;;;2.90;;
5121;SDS011;2563;52.242;7.956;2023-06-14T15:26:18;4.20;;;2.63;;
5121;SDS011;2563;52.242;7.956;2023-06-14T15:28:44;4.90;;;2.90;;
5121;SDS011;2563;52.242;7.956;2023-06-14T15:31:09;3.50;;;2.77;;
5121;SDS011;2563;52.242;7.956;2023-06-14T15:33:34;3.40;;;2.70;;